Flight Briefing for CPX222

Departure Arrival
Seattle-Tacoma International Airport (KSEA)
Click to view FAA NOTAMS
Sacramento International Airport (KSMF)
Click to view FAA NOTAMS
Departure Time Arrival Time
N/A N/A
Aircraft Distance
B767-300BDSF 527nm
Departure METAR Arrival METAR
KSEA 250253Z 25008KT 10SM BKN050 BKN080 13/07 A2995 RMK AO2 SLP149 T01330072 52011 KSMF 250253Z 17014KT 10SM FEW150 BKN200 19/13 A2985 RMK AO2 SLP108 T01940128 56007
Suggested Route
SUMMA1 SUMMA JINMO LMT TUDOR2


View recent IFR Routes data
Notes



Charts and Procedures

Charts for KSEA
No chart available
Charts for KSMF
No chart available

Windy.com Weather Map